sensor_id;sensor_type;location;lat;lon;timestamp;pressure;altitude;pressure_sealevel;temperature;humidity
31873;BME280;22407;42.820;23.374;2023-10-19T00:00:40;95710.25;;;8.22;85.23
31873;BME280;22407;42.820;23.374;2023-10-19T00:03:12;95707.78;;;8.02;86.02
31873;BME280;22407;42.820;23.374;2023-10-19T00:05:38;95713.56;;;8.14;85.71
31873;BME280;22407;42.820;23.374;2023-10-19T00:08:06;95709.25;;;8.18;85.48
31873;BME280;22407;42.820;23.374;2023-10-19T00:10:54;95700.03;;;8.19;85.29
31873;BME280;22407;42.820;23.374;2023-10-19T00:13:37;95706.28;;;8.15;84.68
31873;BME280;22407;42.820;23.374;2023-10-19T00:16:06;95700.28;;;7.99;84.80
31873;BME280;22407;42.820;23.374;2023-10-19T00:18:58;95698.00;;;7.88;85.39
31873;BME280;22407;42.820;23.374;2023-10-19T00:21:25;95691.00;;;7.87;85.16
31873;BME280;22407;42.820;23.374;2023-10-19T00:23:57;95675.22;;;7.57;85.59
31873;BME280;22407;42.820;23.374;2023-10-19T00:26:26;95688.59;;;7.39;86.16
31873;BME280;22407;42.820;23.374;2023-10-19T00:28:52;95679.31;;;7.50;86.24
31873;BME280;22407;42.820;23.374;2023-10-19T00:31:19;95679.41;;;7.45;85.57
31873;BME280;22407;42.820;23.374;2023-10-19T00:33:48;95678.94;;;7.38;86.43
31873;BME280;22407;42.820;23.374;2023-10-19T00:36:17;95686.50;;;7.36;85.30
31873;BME280;22407;42.820;23.374;2023-10-19T00:38:46;95682.63;;;7.18;85.85
31873;BME280;22407;42.820;23.374;2023-10-19T00:41:25;95686.31;;;6.99;86.13
31873;BME280;22407;42.820;23.374;2023-10-19T00:43:58;95675.59;;;6.94;85.99
31873;BME280;22407;42.820;23.374;2023-10-19T00:46:30;95682.78;;;6.75;86.33
31873;BME280;22407;42.820;23.374;2023-10-19T00:49:09;95662.13;;;6.66;86.15
31873;BME280;22407;42.820;23.374;2023-10-19T00:51:42;95673.03;;;6.79;86.14
31873;BME280;22407;42.820;23.374;2023-10-19T00:54:17;95679.75;;;7.10;83.93
31873;BME280;22407;42.820;23.374;2023-10-19T00:56:51;95684.53;;;7.18;83.59
31873;BME280;22407;42.820;23.374;2023-10-19T00:59:19;95679.28;;;7.03;84.47
31873;BME280;22407;42.820;23.374;2023-10-19T01:01:56;95683.69;;;6.94;84.83
31873;BME280;22407;42.820;23.374;2023-10-19T01:04:45;95685.31;;;6.90;84.54
31873;BME280;22407;42.820;23.374;2023-10-19T01:07:16;95687.06;;;7.04;84.01
31873;BME280;22407;42.820;23.374;2023-10-19T01:09:47;95694.56;;;6.79;83.86
31873;BME280;22407;42.820;23.374;2023-10-19T01:12:13;95695.16;;;6.76;83.69
31873;BME280;22407;42.820;23.374;2023-10-19T01:15:21;95689.00;;;6.37;83.98
31873;BME280;22407;42.820;23.374;2023-10-19T01:17:54;95688.63;;;6.49;84.07
31873;BME280;22407;42.820;23.374;2023-10-19T01:20:30;95690.75;;;6.13;84.30
31873;BME280;22407;42.820;23.374;2023-10-19T01:23:04;95696.59;;;6.20;84.38
31873;BME280;22407;42.820;23.374;2023-10-19T01:25:59;95691.59;;;6.04;85.23
31873;BME280;22407;42.820;23.374;2023-10-19T01:28:36;95688.25;;;5.79;85.90
31873;BME280;22407;42.820;23.374;2023-10-19T01:31:09;95683.94;;;5.73;85.70
31873;BME280;22407;42.820;23.374;2023-10-19T01:33:40;95685.59;;;5.69;86.51
31873;BME280;22407;42.820;23.374;2023-10-19T01:36:08;95685.59;;;5.64;85.82
31873;BME280;22407;42.820;23.374;2023-10-19T01:38:36;95689.84;;;5.70;86.42
31873;BME280;22407;42.820;23.374;2023-10-19T01:41:03;95685.03;;;5.72;85.79
31873;BME280;22407;42.820;23.374;2023-10-19T01:43:39;95683.16;;;5.72;85.31
31873;BME280;22407;42.820;23.374;2023-10-19T01:46:06;95684.25;;;5.66;85.89
31873;BME280;22407;42.820;23.374;2023-10-19T01:48:39;95686.19;;;5.51;86.17
31873;BME280;22407;42.820;23.374;2023-10-19T01:51:06;95702.25;;;5.61;87.01
31873;BME280;22407;42.820;23.374;2023-10-19T01:53:37;95695.22;;;5.80;86.57
31873;BME280;22407;42.820;23.374;2023-10-19T01:56:09;95696.88;;;5.61;85.88
31873;BME280;22407;42.820;23.374;2023-10-19T01:58:39;95689.97;;;5.45;86.18
31873;BME280;22407;42.820;23.374;2023-10-19T02:01:09;95691.09;;;5.29;87.56
31873;BME280;22407;42.820;23.374;2023-10-19T02:03:38;95691.34;;;5.27;88.46
31873;BME280;22407;42.820;23.374;2023-10-19T02:06:07;95680.34;;;5.34;88.89
31873;BME280;22407;42.820;23.374;2023-10-19T02:11:15;95688.41;;;5.29;89.45
31873;BME280;22407;42.820;23.374;2023-10-19T02:13:47;95681.88;;;5.50;88.79
31873;BME280;22407;42.820;23.374;2023-10-19T02:16:13;95689.41;;;5.53;88.73
31873;BME280;22407;42.820;23.374;2023-10-19T02:18:42;95679.72;;;5.57;88.07
31873;BME280;22407;42.820;23.374;2023-10-19T02:21:08;95690.19;;;5.63;88.50
31873;BME280;22407;42.820;23.374;2023-10-19T02:23:40;95702.72;;;5.88;87.46
31873;BME280;22407;42.820;23.374;2023-10-19T02:26:09;95695.94;;;6.00;86.61
31873;BME280;22407;42.820;23.374;2023-10-19T02:28:37;95697.34;;;5.88;87.50
31873;BME280;22407;42.820;23.374;2023-10-19T02:31:04;95692.28;;;5.71;88.86
31873;BME280;22407;42.820;23.374;2023-10-19T02:33:51;95689.91;;;5.65;88.40
31873;BME280;22407;42.820;23.374;2023-10-19T02:36:27;95681.53;;;5.71;88.64
31873;BME280;22407;42.820;23.374;2023-10-19T02:38:59;95680.84;;;6.09;87.85
31873;BME280;22407;42.820;23.374;2023-10-19T02:41:26;95680.34;;;5.97;87.91
31873;BME280;22407;42.820;23.374;2023-10-19T02:43:56;95688.72;;;5.91;88.08
31873;BME280;22407;42.820;23.374;2023-10-19T02:46:31;95683.34;;;5.91;87.91
31873;BME280;22407;42.820;23.374;2023-10-19T02:49:07;95688.22;;;5.84;88.32
31873;BME280;22407;42.820;23.374;2023-10-19T02:51:49;95680.47;;;5.72;87.73
31873;BME280;22407;42.820;23.374;2023-10-19T02:54:17;95685.78;;;5.87;87.66
31873;BME280;22407;42.820;23.374;2023-10-19T02:56:54;95687.41;;;5.88;87.59
31873;BME280;22407;42.820;23.374;2023-10-19T02:59:23;95681.47;;;5.91;86.39
31873;BME280;22407;42.820;23.374;2023-10-19T03:01:52;95677.00;;;5.67;86.50
31873;BME280;22407;42.820;23.374;2023-10-19T03:04:26;95674.94;;;5.49;87.15
31873;BME280;22407;42.820;23.374;2023-10-19T03:06:54;95673.31;;;5.48;87.10
31873;BME280;22407;42.820;23.374;2023-10-19T03:09:22;95684.56;;;5.55;86.61
31873;BME280;22407;42.820;23.374;2023-10-19T03:11:49;95682.66;;;5.60;85.98
31873;BME280;22407;42.820;23.374;2023-10-19T03:14:19;95669.28;;;5.50;85.11
31873;BME280;22407;42.820;23.374;2023-10-19T03:16:44;95679.31;;;5.15;86.63
31873;BME280;22407;42.820;23.374;2023-10-19T03:19:11;95683.66;;;4.96;87.20
31873;BME280;22407;42.820;23.374;2023-10-19T03:21:38;95684.16;;;5.03;87.95
31873;BME280;22407;42.820;23.374;2023-10-19T03:24:14;95688.97;;;5.16;86.95
31873;BME280;22407;42.820;23.374;2023-10-19T03:27:01;95683.91;;;5.09;86.11
31873;BME280;22407;42.820;23.374;2023-10-19T03:29:33;95688.22;;;4.91;86.15
31873;BME280;22407;42.820;23.374;2023-10-19T03:32:04;95682.06;;;4.60;87.23
31873;BME280;22407;42.820;23.374;2023-10-19T03:34:31;95689.06;;;4.46;87.43
31873;BME280;22407;42.820;23.374;2023-10-19T03:36:58;95683.69;;;4.36;87.98
31873;BME280;22407;42.820;23.374;2023-10-19T03:39:32;95669.22;;;4.18;87.92
31873;BME280;22407;42.820;23.374;2023-10-19T03:41:59;95667.03;;;4.20;88.80
31873;BME280;22407;42.820;23.374;2023-10-19T03:44:24;95673.22;;;4.30;88.46
31873;BME280;22407;42.820;23.374;2023-10-19T03:46:53;95668.16;;;4.58;87.33
31873;BME280;22407;42.820;23.374;2023-10-19T03:49:19;95682.59;;;4.77;85.16
31873;BME280;22407;42.820;23.374;2023-10-19T03:51:48;95662.78;;;4.63;85.17
31873;BME280;22407;42.820;23.374;2023-10-19T03:54:27;95675.09;;;4.64;85.88
31873;BME280;22407;42.820;23.374;2023-10-19T03:56:54;95680.19;;;4.31;87.30
31873;BME280;22407;42.820;23.374;2023-10-19T03:59:22;95663.28;;;4.06;87.63
31873;BME280;22407;42.820;23.374;2023-10-19T04:01:48;95679.91;;;4.22;88.47
31873;BME280;22407;42.820;23.374;2023-10-19T04:04:14;95673.22;;;4.35;88.04
31873;BME280;22407;42.820;23.374;2023-10-19T04:06:42;95678.56;;;4.35;87.91
31873;BME280;22407;42.820;23.374;2023-10-19T04:09:14;95681.25;;;4.45;87.63
31873;BME280;22407;42.820;23.374;2023-10-19T04:11:43;95682.59;;;4.52;87.60
31873;BME280;22407;42.820;23.374;2023-10-19T04:14:16;95678.31;;;4.51;87.31
31873;BME280;22407;42.820;23.374;2023-10-19T04:16:42;95676.19;;;4.43;87.63
31873;BME280;22407;42.820;23.374;2023-10-19T04:19:12;95678.31;;;4.36;87.14
31873;BME280;22407;42.820;23.374;2023-10-19T04:21:39;95670.53;;;4.45;86.39
31873;BME280;22407;42.820;23.374;2023-10-19T04:24:08;95670.81;;;4.43;86.50
31873;BME280;22407;42.820;23.374;2023-10-19T04:26:34;95667.59;;;4.26;86.85
31873;BME280;22407;42.820;23.374;2023-10-19T04:29:04;95671.63;;;4.44;86.79
31873;BME280;22407;42.820;23.374;2023-10-19T04:31:37;95678.84;;;4.53;86.66
31873;BME280;22407;42.820;23.374;2023-10-19T04:34:03;95670.84;;;4.48;86.75
31873;BME280;22407;42.820;23.374;2023-10-19T04:36:33;95674.81;;;4.56;86.82
31873;BME280;22407;42.820;23.374;2023-10-19T04:38:59;95668.97;;;4.34;86.64
31873;BME280;22407;42.820;23.374;2023-10-19T04:41:25;95667.84;;;4.10;86.60
31873;BME280;22407;42.820;23.374;2023-10-19T04:43:52;95667.59;;;4.17;85.53
31873;BME280;22407;42.820;23.374;2023-10-19T04:46:19;95641.28;;;3.74;85.50
31873;BME280;22407;42.820;23.374;2023-10-19T04:48:45;95655.78;;;3.98;85.38
31873;BME280;22407;42.820;23.374;2023-10-19T04:51:11;95656.78;;;3.67;86.18
31873;BME280;22407;42.820;23.374;2023-10-19T04:53:37;95654.13;;;3.77;86.21
31873;BME280;22407;42.820;23.374;2023-10-19T04:56:07;95645.25;;;3.66;86.62
31873;BME280;22407;42.820;23.374;2023-10-19T04:58:34;95654.13;;;3.77;86.92
31873;BME280;22407;42.820;23.374;2023-10-19T05:01:00;95652.25;;;3.77;87.16
31873;BME280;22407;42.820;23.374;2023-10-19T05:03:27;95655.72;;;3.73;86.75
31873;BME280;22407;42.820;23.374;2023-10-19T05:05:54;95644.50;;;3.81;87.15
31873;BME280;22407;42.820;23.374;2023-10-19T05:08:19;95650.16;;;3.94;86.65
31873;BME280;22407;42.820;23.374;2023-10-19T05:10:45;95657.91;;;3.86;86.20
31873;BME280;22407;42.820;23.374;2023-10-19T05:13:12;95653.63;;;3.85;86.63
31873;BME280;22407;42.820;23.374;2023-10-19T05:15:37;95656.84;;;4.02;86.59
31873;BME280;22407;42.820;23.374;2023-10-19T05:18:04;95649.38;;;4.09;85.97
31873;BME280;22407;42.820;23.374;2023-10-19T05:20:30;95663.84;;;4.18;86.15
31873;BME280;22407;42.820;23.374;2023-10-19T05:22:56;95664.91;;;4.07;87.05
31873;BME280;22407;42.820;23.374;2023-10-19T05:25:23;95664.63;;;4.03;87.41
31873;BME280;22407;42.820;23.374;2023-10-19T05:27:48;95664.63;;;4.18;87.37
31873;BME280;22407;42.820;23.374;2023-10-19T05:30:14;95672.38;;;4.00;87.56
31873;BME280;22407;42.820;23.374;2023-10-19T05:32:40;95671.34;;;4.21;87.37
31873;BME280;22407;42.820;23.374;2023-10-19T05:35:05;95663.84;;;4.42;87.21
31873;BME280;22407;42.820;23.374;2023-10-19T05:37:31;95669.75;;;4.34;88.18
31873;BME280;22407;42.820;23.374;2023-10-19T05:39:57;95671.34;;;4.60;87.98
31873;BME280;22407;42.820;23.374;2023-10-19T05:42:24;95677.00;;;4.64;87.76
31873;BME280;22407;42.820;23.374;2023-10-19T05:44:50;95678.84;;;4.83;88.39
31873;BME280;22407;42.820;23.374;2023-10-19T05:47:17;95667.00;;;5.09;88.38
31873;BME280;22407;42.820;23.374;2023-10-19T05:49:42;95672.84;;;5.26;88.43
31873;BME280;22407;42.820;23.374;2023-10-19T05:52:08;95676.59;;;5.35;87.89
31873;BME280;22407;42.820;23.374;2023-10-19T05:54:33;95672.03;;;5.25;89.21
31873;BME280;22407;42.820;23.374;2023-10-19T05:56:59;95671.88;;;5.65;89.10
31873;BME280;22407;42.820;23.374;2023-10-19T05:59:24;95671.88;;;5.80;88.48
31873;BME280;22407;42.820;23.374;2023-10-19T06:01:52;95673.91;;;5.98;87.31
31873;BME280;22407;42.820;23.374;2023-10-19T06:04:17;95673.25;;;6.16;86.94
31873;BME280;22407;42.820;23.374;2023-10-19T06:06:43;95668.69;;;6.16;87.76
31873;BME280;22407;42.820;23.374;2023-10-19T06:09:08;95676.63;;;6.36;86.98
31873;BME280;22407;42.820;23.374;2023-10-19T06:11:35;95685.09;;;6.53;87.53
31873;BME280;22407;42.820;23.374;2023-10-19T06:14:06;95685.47;;;6.75;86.48
31873;BME280;22407;42.820;23.374;2023-10-19T06:16:35;95675.03;;;6.69;86.88
31873;BME280;22407;42.820;23.374;2023-10-19T06:19:01;95670.44;;;7.02;85.87
31873;BME280;22407;42.820;23.374;2023-10-19T06:21:27;95667.16;;;7.05;85.24
31873;BME280;22407;42.820;23.374;2023-10-19T06:23:53;95658.84;;;7.02;85.96
31873;BME280;22407;42.820;23.374;2023-10-19T06:26:19;95657.56;;;7.23;84.57
31873;BME280;22407;42.820;23.374;2023-10-19T06:28:45;95661.06;;;7.47;84.03
31873;BME280;22407;42.820;23.374;2023-10-19T06:31:11;95668.16;;;7.61;83.47
31873;BME280;22407;42.820;23.374;2023-10-19T06:33:36;95667.81;;;7.68;83.99
31873;BME280;22407;42.820;23.374;2023-10-19T06:36:07;95669.56;;;7.77;83.93
31873;BME280;22407;42.820;23.374;2023-10-19T06:38:32;95664.41;;;7.80;84.33
31873;BME280;22407;42.820;23.374;2023-10-19T06:40:59;95668.00;;;7.94;84.28
31873;BME280;22407;42.820;23.374;2023-10-19T06:43:25;95680.25;;;8.05;84.19
31873;BME280;22407;42.820;23.374;2023-10-19T06:45:54;95676.16;;;8.31;82.78
31873;BME280;22407;42.820;23.374;2023-10-19T06:48:20;95675.47;;;8.39;83.21
31873;BME280;22407;42.820;23.374;2023-10-19T06:50:46;95669.28;;;8.20;82.30
31873;BME280;22407;42.820;23.374;2023-10-19T06:53:12;95678.47;;;8.56;81.04
31873;BME280;22407;42.820;23.374;2023-10-19T06:55:38;95673.94;;;8.70;80.55
31873;BME280;22407;42.820;23.374;2023-10-19T06:58:03;95667.53;;;8.98;78.79
31873;BME280;22407;42.820;23.374;2023-10-19T07:00:30;95665.66;;;9.12;77.92
31873;BME280;22407;42.820;23.374;2023-10-19T07:02:57;95649.63;;;9.02;79.12
31873;BME280;22407;42.820;23.374;2023-10-19T07:05:26;95639.25;;;9.09;78.68
31873;BME280;22407;42.820;23.374;2023-10-19T07:07:56;95640.78;;;9.41;78.17
31873;BME280;22407;42.820;23.374;2023-10-19T07:10:23;95635.00;;;9.48;78.35
31873;BME280;22407;42.820;23.374;2023-10-19T07:12:53;95636.59;;;9.62;77.33
31873;BME280;22407;42.820;23.374;2023-10-19T07:15:19;95631.19;;;9.62;77.42
31873;BME280;22407;42.820;23.374;2023-10-19T07:17:49;95635.88;;;9.97;76.86
31873;BME280;22407;42.820;23.374;2023-10-19T07:20:18;95641.69;;;10.18;76.66
31873;BME280;22407;42.820;23.374;2023-10-19T07:22:53;95636.53;;;10.29;76.60
31873;BME280;22407;42.820;23.374;2023-10-19T07:25:20;95644.63;;;10.43;76.24
31873;BME280;22407;42.820;23.374;2023-10-19T07:27:48;95649.91;;;10.70;75.27
31873;BME280;22407;42.820;23.374;2023-10-19T07:30:13;95649.44;;;10.90;74.55
31873;BME280;22407;42.820;23.374;2023-10-19T07:32:41;95653.50;;;10.79;75.01
31873;BME280;22407;42.820;23.374;2023-10-19T07:35:07;95657.13;;;10.74;73.72
31873;BME280;22407;42.820;23.374;2023-10-19T07:37:32;95651.84;;;10.91;74.26
31873;BME280;22407;42.820;23.374;2023-10-19T07:39:58;95659.75;;;11.10;74.02
31873;BME280;22407;42.820;23.374;2023-10-19T07:42:24;95662.28;;;11.58;72.13
31873;BME280;22407;42.820;23.374;2023-10-19T07:44:49;95658.41;;;11.81;70.92
31873;BME280;22407;42.820;23.374;2023-10-19T07:47:15;95655.63;;;11.64;71.21
31873;BME280;22407;42.820;23.374;2023-10-19T07:49:40;95652.22;;;11.28;72.06
31873;BME280;22407;42.820;23.374;2023-10-19T07:52:07;95659.91;;;12.04;71.09
31873;BME280;22407;42.820;23.374;2023-10-19T07:54:34;95655.66;;;12.28;69.74
31873;BME280;22407;42.820;23.374;2023-10-19T07:57:01;95650.00;;;12.00;69.89
31873;BME280;22407;42.820;23.374;2023-10-19T07:59:33;95654.97;;;12.06;70.67
31873;BME280;22407;42.820;23.374;2023-10-19T08:02:00;95657.34;;;11.99;70.30
31873;BME280;22407;42.820;23.374;2023-10-19T08:04:29;95662.81;;;11.69;70.97
31873;BME280;22407;42.820;23.374;2023-10-19T08:06:57;95655.78;;;12.15;69.92
31873;BME280;22407;42.820;23.374;2023-10-19T08:09:22;95649.78;;;12.52;69.60
31873;BME280;22407;42.820;23.374;2023-10-19T08:11:49;95660.03;;;12.88;67.59
31873;BME280;22407;42.820;23.374;2023-10-19T08:14:14;95664.81;;;13.08;66.71
31873;BME280;22407;42.820;23.374;2023-10-19T08:16:40;95660.19;;;13.17;66.60
31873;BME280;22407;42.820;23.374;2023-10-19T08:19:07;95654.91;;;13.12;65.74
31873;BME280;22407;42.820;23.374;2023-10-19T08:21:33;95655.53;;;13.26;66.22
31873;BME280;22407;42.820;23.374;2023-10-19T08:24:00;95648.22;;;13.56;64.59
31873;BME280;22407;42.820;23.374;2023-10-19T08:26:31;95646.38;;;13.85;63.93
31873;BME280;22407;42.820;23.374;2023-10-19T08:28:56;95650.16;;;13.55;65.67
31873;BME280;22407;42.820;23.374;2023-10-19T08:31:24;95643.09;;;14.00;64.09
31873;BME280;22407;42.820;23.374;2023-10-19T08:33:50;95647.56;;;14.33;64.39
31873;BME280;22407;42.820;23.374;2023-10-19T08:36:19;95639.69;;;14.61;61.61
31873;BME280;22407;42.820;23.374;2023-10-19T08:38:48;95637.28;;;14.79;61.41
31873;BME280;22407;42.820;23.374;2023-10-19T08:41:15;95629.41;;;14.86;61.60
31873;BME280;22407;42.820;23.374;2023-10-19T08:43:40;95636.00;;;15.18;59.79
31873;BME280;22407;42.820;23.374;2023-10-19T08:46:06;95634.34;;;15.25;60.25
31873;BME280;22407;42.820;23.374;2023-10-19T08:48:35;95633.53;;;15.57;59.04
31873;BME280;22407;42.820;23.374;2023-10-19T08:51:09;95642.91;;;16.04;56.79
31873;BME280;22407;42.820;23.374;2023-10-19T08:53:38;95637.91;;;15.94;57.52
31873;BME280;22407;42.820;23.374;2023-10-19T08:56:08;95636.53;;;16.59;57.36
31873;BME280;22407;42.820;23.374;2023-10-19T08:58:34;95644.47;;;16.76;55.77
31873;BME280;22407;42.820;23.374;2023-10-19T09:01:00;95641.63;;;16.73;54.09
31873;BME280;22407;42.820;23.374;2023-10-19T09:03:34;95630.56;;;16.30;54.26
31873;BME280;22407;42.820;23.374;2023-10-19T09:06:03;95628.25;;;16.08;56.40
31873;BME280;22407;42.820;23.374;2023-10-19T09:08:30;95637.00;;;16.49;55.91
31873;BME280;22407;42.820;23.374;2023-10-19T09:11:08;95616.72;;;16.62;53.99
31873;BME280;22407;42.820;23.374;2023-10-19T09:13:45;95621.19;;;16.43;53.21
31873;BME280;22407;42.820;23.374;2023-10-19T09:16:18;95624.13;;;17.01;52.82
31873;BME280;22407;42.820;23.374;2023-10-19T09:18:44;95616.50;;;17.34;52.60
31873;BME280;22407;42.820;23.374;2023-10-19T09:21:19;95627.75;;;17.05;51.50
31873;BME280;22407;42.820;23.374;2023-10-19T09:23:55;95609.94;;;15.97;53.96
31873;BME280;22407;42.820;23.374;2023-10-19T09:26:22;95611.50;;;16.22;53.44
31873;BME280;22407;42.820;23.374;2023-10-19T09:28:48;95607.34;;;16.75;54.72
31873;BME280;22407;42.820;23.374;2023-10-19T09:31:14;95617.25;;;17.07;52.56
31873;BME280;22407;42.820;23.374;2023-10-19T09:33:42;95609.81;;;17.20;52.07
31873;BME280;22407;42.820;23.374;2023-10-19T09:36:10;95616.97;;;17.51;51.42
31873;BME280;22407;42.820;23.374;2023-10-19T09:38:46;95595.81;;;17.09;51.94
31873;BME280;22407;42.820;23.374;2023-10-19T09:41:23;95592.22;;;17.05;52.21
31873;BME280;22407;42.820;23.374;2023-10-19T09:43:57;95584.81;;;17.48;51.85
31873;BME280;22407;42.820;23.374;2023-10-19T09:46:31;95582.69;;;17.42;49.78
31873;BME280;22407;42.820;23.374;2023-10-19T09:48:57;95580.59;;;17.51;50.81
31873;BME280;22407;42.820;23.374;2023-10-19T09:51:24;95581.28;;;17.48;50.73
31873;BME280;22407;42.820;23.374;2023-10-19T09:54:04;95561.88;;;17.99;49.84
31873;BME280;22407;42.820;23.374;2023-10-19T09:56:38;95554.97;;;18.05;48.39
31873;BME280;22407;42.820;23.374;2023-10-19T10:02:09;95564.44;;;17.46;50.52
31873;BME280;22407;42.820;23.374;2023-10-19T10:04:38;95569.72;;;17.70;50.30
31873;BME280;22407;42.820;23.374;2023-10-19T10:07:06;95563.56;;;17.73;49.64
31873;BME280;22407;42.820;23.374;2023-10-19T10:09:37;95553.34;;;18.35;50.46
31873;BME280;22407;42.820;23.374;2023-10-19T10:15:13;95552.03;;;18.63;48.48
31873;BME280;22407;42.820;23.374;2023-10-19T10:17:41;95548.47;;;18.82;48.34
31873;BME280;22407;42.820;23.374;2023-10-19T10:22:44;95534.56;;;18.71;47.62
31873;BME280;22407;42.820;23.374;2023-10-19T10:25:26;95537.94;;;18.65;47.73
31873;BME280;22407;42.820;23.374;2023-10-19T10:27:53;95541.41;;;19.37;47.52
31873;BME280;22407;42.820;23.374;2023-10-19T10:30:19;95541.72;;;19.55;44.98
31873;BME280;22407;42.820;23.374;2023-10-19T10:32:54;95523.88;;;19.04;45.55
31873;BME280;22407;42.820;23.374;2023-10-19T10:38:03;95518.59;;;19.78;44.32
31873;BME280;22407;42.820;23.374;2023-10-19T10:40:31;95509.19;;;19.79;44.25
31873;BME280;22407;42.820;23.374;2023-10-19T10:43:06;95497.91;;;19.62;44.30
31873;BME280;22407;42.820;23.374;2023-10-19T10:45:32;95486.59;;;20.15;43.90
31873;BME280;22407;42.820;23.374;2023-10-19T10:47:57;95495.19;;;20.65;43.65
31873;BME280;22407;42.820;23.374;2023-10-19T10:50:26;95487.28;;;20.93;41.48
31873;BME280;22407;42.820;23.374;2023-10-19T10:52:53;95478.19;;;20.89;41.75
31873;BME280;22407;42.820;23.374;2023-10-19T10:55:24;95474.97;;;20.51;42.39
31873;BME280;22407;42.820;23.374;2023-10-19T10:57:54;95469.66;;;20.68;41.57
31873;BME280;22407;42.820;23.374;2023-10-19T11:00:19;95474.41;;;21.00;41.29
31873;BME280;22407;42.820;23.374;2023-10-19T11:02:47;95462.66;;;20.74;40.83
31873;BME280;22407;42.820;23.374;2023-10-19T11:05:14;95466.72;;;21.16;41.67
31873;BME280;22407;42.820;23.374;2023-10-19T11:10:29;95458.84;;;22.01;39.88
31873;BME280;22407;42.820;23.374;2023-10-19T11:13:05;95446.81;;;22.30;40.23
31873;BME280;22407;42.820;23.374;2023-10-19T11:15:32;95440.06;;;21.67;37.73
31873;BME280;22407;42.820;23.374;2023-10-19T11:17:58;95439.44;;;21.44;39.36
31873;BME280;22407;42.820;23.374;2023-10-19T11:20:25;95443.16;;;22.09;39.40
31873;BME280;22407;42.820;23.374;2023-10-19T11:22:53;95424.03;;;21.83;39.77
31873;BME280;22407;42.820;23.374;2023-10-19T11:25:33;95428.41;;;21.87;38.75
31873;BME280;22407;42.820;23.374;2023-10-19T11:28:01;95427.31;;;21.99;39.81
31873;BME280;22407;42.820;23.374;2023-10-19T11:30:30;95422.13;;;21.90;39.02
31873;BME280;22407;42.820;23.374;2023-10-19T11:32:57;95415.75;;;21.79;39.46
31873;BME280;22407;42.820;23.374;2023-10-19T11:35:24;95409.63;;;21.53;40.13
31873;BME280;22407;42.820;23.374;2023-10-19T11:37:54;95407.66;;;21.54;38.66
31873;BME280;22407;42.820;23.374;2023-10-19T11:40:21;95411.09;;;20.68;40.63
31873;BME280;22407;42.820;23.374;2023-10-19T11:42:47;95401.09;;;20.53;41.46
31873;BME280;22407;42.820;23.374;2023-10-19T11:45:13;95403.00;;;20.78;40.80
31873;BME280;22407;42.820;23.374;2023-10-19T11:47:39;95378.06;;;21.40;40.77
31873;BME280;22407;42.820;23.374;2023-10-19T11:50:05;95391.28;;;20.84;40.66
31873;BME280;22407;42.820;23.374;2023-10-19T11:52:31;95402.41;;;20.95;41.84
31873;BME280;22407;42.820;23.374;2023-10-19T11:54:57;95396.22;;;20.39;41.67
31873;BME280;22407;42.820;23.374;2023-10-19T11:57:25;95396.88;;;20.29;41.50
31873;BME280;22407;42.820;23.374;2023-10-19T11:59:51;95383.25;;;20.73;42.59
31873;BME280;22407;42.820;23.374;2023-10-19T12:02:20;95388.38;;;21.54;40.96
31873;BME280;22407;42.820;23.374;2023-10-19T12:04:46;95383.03;;;21.28;40.65
31873;BME280;22407;42.820;23.374;2023-10-19T12:07:12;95391.75;;;21.33;39.64
31873;BME280;22407;42.820;23.374;2023-10-19T12:09:37;95385.63;;;21.54;39.63
31873;BME280;22407;42.820;23.374;2023-10-19T12:12:06;95391.47;;;21.49;39.71
31873;BME280;22407;42.820;23.374;2023-10-19T12:14:32;95385.81;;;21.74;40.93
31873;BME280;22407;42.820;23.374;2023-10-19T12:17:00;95382.00;;;21.96;37.46
31873;BME280;22407;42.820;23.374;2023-10-19T12:19:29;95378.75;;;21.80;38.46
31873;BME280;22407;42.820;23.374;2023-10-19T12:21:55;95364.72;;;22.06;38.66
31873;BME280;22407;42.820;23.374;2023-10-19T12:24:21;95363.13;;;21.98;39.31
31873;BME280;22407;42.820;23.374;2023-10-19T12:26:47;95361.09;;;21.88;37.60
31873;BME280;22407;42.820;23.374;2023-10-19T12:29:12;95355.53;;;20.88;40.41
31873;BME280;22407;42.820;23.374;2023-10-19T12:31:40;95360.84;;;21.54;40.42
31873;BME280;22407;42.820;23.374;2023-10-19T12:34:06;95355.25;;;22.00;39.78
31873;BME280;22407;42.820;23.374;2023-10-19T12:36:33;95354.06;;;21.94;38.03
31873;BME280;22407;42.820;23.374;2023-10-19T12:39:00;95351.31;;;21.98;39.54
31873;BME280;22407;42.820;23.374;2023-10-19T12:41:27;95347.50;;;22.23;37.29
31873;BME280;22407;42.820;23.374;2023-10-19T12:43:53;95338.97;;;21.71;37.98
31873;BME280;22407;42.820;23.374;2023-10-19T12:46:33;95335.59;;;21.45;38.90
31873;BME280;22407;42.820;23.374;2023-10-19T12:49:04;95333.22;;;22.00;38.72
31873;BME280;22407;42.820;23.374;2023-10-19T12:51:33;95337.22;;;22.13;39.60
31873;BME280;22407;42.820;23.374;2023-10-19T12:54:00;95326.69;;;22.33;37.46
31873;BME280;22407;42.820;23.374;2023-10-19T12:56:28;95334.44;;;22.10;38.35
31873;BME280;22407;42.820;23.374;2023-10-19T12:58:54;95340.47;;;22.33;37.84
31873;BME280;22407;42.820;23.374;2023-10-19T13:01:19;95333.41;;;22.35;38.32
31873;BME280;22407;42.820;23.374;2023-10-19T13:03:47;95332.66;;;22.52;36.80
31873;BME280;22407;42.820;23.374;2023-10-19T13:06:16;95325.59;;;22.58;37.13
31873;BME280;22407;42.820;23.374;2023-10-19T13:08:42;95311.78;;;22.55;37.39
31873;BME280;22407;42.820;23.374;2023-10-19T13:11:08;95312.25;;;22.88;37.27
31873;BME280;22407;42.820;23.374;2023-10-19T13:13:35;95306.72;;;22.88;37.04
31873;BME280;22407;42.820;23.374;2023-10-19T13:16:04;95303.72;;;22.08;38.48
31873;BME280;22407;42.820;23.374;2023-10-19T13:18:35;95298.81;;;22.62;38.04
31873;BME280;22407;42.820;23.374;2023-10-19T13:21:01;95284.69;;;23.09;35.91